CheckWX is a tool to help pilots better visualize weather data.  It is not intended as a substitute for an official pre-flight weather briefing.

09:35:17 UTC

EGUN METAR
RAF Mildenhall Airport
Mildenhall, United Kingdom
Current

39 mins ago

EGUN 070856Z 25014KT 9999 OVC041 08/06 A2988 RMK SLPNO RVRNO $
Observed
Dec-7 @ 08:56 UTC
Wind
  • 250° at 14 KTS
Visibility
10,000+ meters
Flight Rules
VFR
Cloud Levels
  • Overcast at 4,100' AGL
Temperature
C / 46°F
Dewpoint
C / 43°F
Humidity
87%
Altimeter
29.88" Hg
Pressure
1011.82 hPa
Previous

39 mins ago

EGUN 070856Z 25014KT 9999 OVC041 08/06 A2988 RMK SLPNO RVRNO .
Observed
Dec-7 @ 08:56 UTC
Wind
  • 250° at 14 KTS
Visibility
10,000+ meters
Flight Rules
VFR
Cloud Levels
  • Overcast at 4,100' AGL
Temperature
C / 46°F
Dewpoint
C / 43°F
Humidity
87%
Altimeter
29.88" Hg
Pressure
1011.82 hPa
Previous

2 hours ago

EGUN 070756Z AUTO 24007KT 9999 OVC043 08/08 A2987 RMK AO2 SLP118 T00780078 .
Observed
Dec-7 @ 07:56 UTC
Wind
  • 240° at 7 KTS
Visibility
10,000+ meters
Flight Rules
VFR
Cloud Levels
  • Overcast at 4,300' AGL
Temperature
C / 46°F
Dewpoint
C / 46°F
Humidity
100%
Altimeter
29.87" Hg
Pressure
1011.52 hPa